Time;durP1;ratioP1;P1;durP2;ratioP2;P2;SDS_P1;SDS_P2;PMS_P1;PMS_P2;Temp;Humidity;BMP_temperature;BMP_pressure;BME280_temperature;BME280_humidity;BME280_pressure;Samples;Min_cycle;Max_cycle;Signal;HPM_P1;HPM_P2
2021/10/17 00:01:53;;;;;;;18.10;9.45;;;;;;;6.79;100.00;99779.56;5066173;28;20074;-66
2021/10/17 00:04:37;;;;;;;15.60;8.90;;;;;;;6.73;100.00;99772.53;5063670;28;20055;-63
2021/10/17 00:07:22;;;;;;;14.40;8.43;;;;;;;6.80;100.00;99765.50;5047062;28;20559;-65
2021/10/17 00:10:10;;;;;;;17.60;9.20;;;;;;;6.88;100.00;99761.94;5057999;28;20482;-63
2021/10/17 00:12:57;;;;;;;15.32;9.23;;;;;;;6.85;100.00;99774.25;5066188;28;20130;-64
2021/10/17 00:15:41;;;;;;;19.35;10.10;;;;;;;6.84;100.00;99764.63;5066821;28;20047;-64
2021/10/17 00:18:26;;;;;;;14.95;8.23;;;;;;;6.85;100.00;99772.47;5063370;28;20046;-72
2021/10/17 00:21:12;;;;;;;16.95;8.57;;;;;;;6.86;100.00;99770.75;5071057;28;20546;-64
2021/10/17 00:23:56;;;;;;;18.30;8.80;;;;;;;6.91;100.00;99777.75;5056330;28;20476;-63
2021/10/17 00:26:40;;;;;;;16.63;8.50;;;;;;;6.92;100.00;99768.09;5066493;28;20527;-63
2021/10/17 00:29:25;;;;;;;15.43;8.32;;;;;;;6.85;100.00;99776.91;5069465;28;20048;-63
2021/10/17 00:32:10;;;;;;;16.17;8.65;;;;;;;6.90;100.00;99768.09;5064337;28;20483;-64
2021/10/17 00:34:55;;;;;;;17.30;9.30;;;;;;;6.83;100.00;99774.28;5053825;28;20118;-62
2021/10/17 00:37:41;;;;;;;16.95;9.32;;;;;;;6.88;100.00;99774.25;5049402;28;20543;-66
2021/10/17 00:40:27;;;;;;;18.17;9.05;;;;;;;6.84;100.00;99776.00;5060106;28;20428;-62
2021/10/17 00:43:12;;;;;;;17.08;8.93;;;;;;;6.74;100.00;99776.97;5057057;28;20098;-62
2021/10/17 00:45:56;;;;;;;;;;;;;;;6.79;100.00;99769.91;5067362;28;20059;-62
2021/10/17 00:48:41;;;;;;;18.00;8.63;;;;;;;6.71;100.00;99771.69;5076930;28;19934;-62
2021/10/17 00:51:25;;;;;;;14.68;9.05;;;;;;;6.60;100.00;99773.50;5063393;28;20051;-63
2021/10/17 00:54:12;;;;;;;16.50;8.90;;;;;;;6.50;100.00;99760.38;5064927;28;20056;-62
2021/10/17 00:56:56;;;;;;;15.95;9.32;;;;;;;6.57;100.00;99776.13;5049856;28;20090;-69
2021/10/17 00:59:41;;;;;;;;;;;;;;;6.48;100.00;99773.53;5066940;28;20051;-62
2021/10/17 01:02:26;;;;;;;17.77;9.27;;;;;;;6.46;100.00;99770.06;5042324;28;19924;-62
2021/10/17 01:05:18;;;;;;;17.90;9.15;;;;;;;6.45;100.00;99772.69;5045480;28;20059;-63
2021/10/17 01:08:03;;;;;;;18.42;8.85;;;;;;;6.47;100.00;99782.34;5064467;28;20448;-65
2021/10/17 01:10:47;;;;;;;17.57;8.97;;;;;;;6.46;100.00;99764.78;5056466;28;20043;-70
2021/10/17 01:13:33;;;;;;;16.45;8.52;;;;;;;6.47;100.00;99782.34;5057779;28;20310;-66
2021/10/17 01:16:19;;;;;;;15.82;8.43;;;;;;;6.48;100.00;99777.94;5031422;28;20069;-64
2021/10/17 01:19:06;;;;;;;21.85;9.73;;;;;;;6.39;100.00;99776.22;5064781;28;20466;-63
2021/10/17 01:21:53;;;;;;;17.88;8.60;;;;;;;6.38;100.00;99773.59;5065554;28;20059;-63
2021/10/17 01:24:38;;;;;;;16.08;9.10;;;;;;;6.40;100.00;99772.69;5073110;28;20066;-63
2021/10/17 01:27:22;;;;;;;16.58;9.43;;;;;;;6.39;100.00;99777.97;5056131;28;20424;-63
2021/10/17 01:30:14;;;;;;;17.00;9.60;;;;;;;6.31;100.00;99767.47;5049051;28;20130;-67
2021/10/17 01:33:00;;;;;;;17.83;8.82;;;;;;;6.38;100.00;99763.06;5049202;28;20055;-62
2021/10/17 01:35:45;;;;;;;16.52;8.73;;;;;;;6.32;100.00;99773.59;5055669;28;20129;-62
2021/10/17 01:38:29;;;;;;;16.63;8.98;;;;;;;6.35;100.00;99773.59;5070667;28;20055;-65
2021/10/17 01:41:13;;;;;;;16.95;8.23;;;;;;;6.37;100.00;99772.69;5052057;28;20050;-65
2021/10/17 01:44:11;;;;;;;18.05;8.90;;;;;;;6.41;100.00;99766.53;5067726;28;20110;-76
2021/10/17 01:46:56;;;;;;;14.63;7.97;;;;;;;6.46;100.00;99771.78;5065025;28;20085;-64
2021/10/17 01:49:45;;;;;;;15.43;7.28;;;;;;;6.58;100.00;99763.84;5048482;28;20048;-65
2021/10/17 01:52:31;;;;;;;13.98;7.70;;;;;;;6.62;100.00;99760.31;5067697;28;20075;-65
2021/10/17 01:55:16;;;;;;;16.15;7.13;;;;;;;6.37;100.00;99758.69;5067586;28;20086;-63
2021/10/17 01:58:02;;;;;;;18.40;8.20;;;;;;;6.30;100.00;99759.56;5051531;28;20727;-65
2021/10/17 02:00:50;;;;;;;14.18;7.78;;;;;;;6.29;100.00;99763.94;5069090;28;20060;-64
2021/10/17 02:03:36;;;;;;;16.95;7.70;;;;;;;6.31;100.00;99749.03;5067917;28;20055;-68
2021/10/17 02:06:21;;;;;;;14.10;7.43;;;;;;;6.43;100.00;99754.25;5062526;28;20047;-64
2021/10/17 02:09:10;;;;;;;14.63;8.05;;;;;;;6.36;100.00;99760.41;5066447;28;20075;-63
2021/10/17 02:11:55;;;;;;;13.70;7.60;;;;;;;6.28;100.00;99751.66;5066200;28;20485;-64
2021/10/17 02:14:39;;;;;;;17.88;8.23;;;;;;;6.13;100.00;99746.44;5054011;28;20098;-63
2021/10/17 02:17:24;;;;;;;14.18;7.50;;;;;;;6.15;100.00;99744.69;5067852;28;20047;-64
2021/10/17 02:20:10;;;;;;;13.82;7.82;;;;;;;6.11;100.00;99744.69;5063314;28;20056;-66
2021/10/17 02:22:57;;;;;;;12.57;7.15;;;;;;;6.06;100.00;99733.31;5059347;28;20083;-64
2021/10/17 02:25:42;;;;;;;16.02;7.85;;;;;;;5.97;100.00;99735.97;5064801;28;20070;-65
2021/10/17 02:28:26;;;;;;;16.38;7.55;;;;;;;6.01;100.00;99735.94;5061825;28;20496;-64
2021/10/17 02:31:13;;;;;;;11.40;6.95;;;;;;;5.97;100.00;99733.34;5048113;28;20055;-64
2021/10/17 02:34:04;;;;;;;18.92;8.35;;;;;;;5.90;100.00;99716.69;5058523;28;20047;-63
2021/10/17 02:36:49;;;;;;;15.98;8.07;;;;;;;5.94;100.00;99734.22;5062871;28;20424;-62
2021/10/17 02:39:33;;;;;;;15.60;7.78;;;;;;;6.09;100.00;99735.94;5064838;28;20048;-72
2021/10/17 02:42:17;;;;;;;13.95;7.82;;;;;;;5.93;100.00;99721.94;5066073;28;20093;-62
2021/10/17 02:45:06;;;;;;;14.10;7.68;;;;;;;5.96;100.00;99729.81;5053401;28;20127;-64
2021/10/17 02:47:51;;;;;;;13.05;6.75;;;;;;;6.17;100.00;99729.75;5061612;28;20519;-63
2021/10/17 02:50:37;;;;;;;15.80;7.47;;;;;;;6.25;100.00;99720.06;5067366;28;20094;-64
2021/10/17 02:53:22;;;;;;;13.68;7.68;;;;;;;6.24;100.00;99725.34;5067125;28;20459;-65
2021/10/17 02:56:07;;;;;;;13.93;6.80;;;;;;;6.27;100.00;99725.34;5077977;28;20579;-65
2021/10/17 02:58:53;;;;;;;15.10;8.40;;;;;;;6.18;100.00;99728.91;5046345;28;20075;-65
2021/10/17 03:01:38;;;;;;;15.35;7.93;;;;;;;6.08;100.00;99723.66;5062971;28;20054;-72
2021/10/17 03:04:24;;;;;;;13.70;7.35;;;;;;;6.11;100.00;99719.25;5063444;28;20052;-68
2021/10/17 03:07:13;;;;;;;16.17;8.05;;;;;;;6.09;100.00;99720.16;5068013;28;20060;-66
2021/10/17 03:10:15;;;;;;;15.65;7.65;;;;;;;6.05;100.00;99718.41;5044515;28;20079;-66
2021/10/17 03:13:00;;;;;;;14.88;8.05;;;;;;;6.12;100.00;99715.75;5063271;28;20450;-66
2021/10/17 03:15:45;;;;;;;15.13;7.97;;;;;;;6.17;100.00;99721.88;5065981;28;20062;-67
2021/10/17 03:18:35;;;;;;;13.35;8.02;;;;;;;6.18;100.00;99715.75;5058327;28;20059;-64
2021/10/17 03:21:20;;;;;;;19.55;8.52;;;;;;;6.01;100.00;99714.03;5064354;28;20242;-68
2021/10/17 03:24:04;;;;;;;17.83;8.55;;;;;;;5.96;100.00;99719.31;5050697;28;20060;-74
2021/10/17 03:26:49;;;;;;;19.10;9.38;;;;;;;5.92;100.00;99714.03;5064898;28;20162;-64
2021/10/17 03:29:33;;;;;;;16.50;7.57;;;;;;;5.93;100.00;99705.28;5065508;28;20094;-68
2021/10/17 03:32:20;;;;;;;13.73;8.35;;;;;;;5.89;100.00;99727.22;5066974;28;20082;-65
2021/10/17 03:35:06;;;;;;;16.10;8.35;;;;;;;5.91;100.00;99720.19;5065467;28;20062;-64
2021/10/17 03:37:51;;;;;;;16.27;8.50;;;;;;;5.75;100.00;99714.06;5051733;28;20059;-67
2021/10/17 03:40:36;;;;;;;16.50;8.80;;;;;;;5.65;100.00;99712.31;5066399;28;20067;-64
2021/10/17 03:43:21;;;;;;;19.23;8.10;;;;;;;5.66;100.00;99708.78;5058798;28;20055;-67
2021/10/17 03:46:14;;;;;;;15.85;8.13;;;;;;;5.65;100.00;99716.72;5070298;28;20054;-69
2021/10/17 03:48:59;;;;;;;18.13;8.88;;;;;;;5.59;100.00;99701.81;5072001;28;20046;-68
2021/10/17 03:51:47;;;;;;;17.75;8.60;;;;;;;5.82;100.00;99715.84;5064164;28;20089;-65
2021/10/17 03:54:33;;;;;;;16.05;9.23;;;;;;;5.79;100.00;99715.81;5048171;28;20060;-74
2021/10/17 03:57:17;;;;;;;16.55;8.43;;;;;;;5.81;100.00;99723.75;5045100;28;20103;-66
2021/10/17 04:00:03;;;;;;;18.92;9.00;;;;;;;5.82;100.00;99722.84;5064372;28;20063;-67
2021/10/17 04:02:57;;;;;;;16.73;8.70;;;;;;;5.79;100.00;99717.56;5064829;28;20083;-71
2021/10/17 04:05:42;;;;;;;15.90;8.45;;;;;;;5.87;100.00;99726.34;5058158;28;20051;-66
2021/10/17 04:08:27;;;;;;;17.83;9.05;;;;;;;5.81;100.00;99723.75;5058928;28;20524;-65
2021/10/17 04:11:12;;;;;;;21.63;8.90;;;;;;;5.75;100.00;99716.69;5065802;28;20424;-63
2021/10/17 04:13:56;;;;;;;17.00;8.82;;;;;;;5.87;100.00;99715.81;5066205;28;20051;-64
2021/10/17 04:16:41;;;;;;;16.10;8.77;;;;;;;5.83;100.00;99722.84;5061383;28;20056;-63
2021/10/17 04:19:28;;;;;;;18.50;8.52;;;;;;;5.74;100.00;99721.94;5045419;28;20055;-65
2021/10/17 04:22:13;;;;;;;19.10;9.20;;;;;;;5.68;100.00;99722.84;5061925;28;20047;-73
2021/10/17 04:24:58;;;;;;;18.50;9.40;;;;;;;5.62;100.00;99724.59;5064016;28;20093;-64
2021/10/17 04:27:42;;;;;;;17.52;8.55;;;;;;;5.68;100.00;99717.56;5057841;28;20047;-65
2021/10/17 04:30:30;;;;;;;16.70;9.15;;;;;;;5.71;100.00;99722.84;5054871;28;20098;-65
2021/10/17 04:33:16;;;;;;;21.48;8.80;;;;;;;5.72;100.00;99719.31;5055340;28;20080;-67
2021/10/17 04:36:00;;;;;;;18.60;9.00;;;;;;;5.82;100.00;99728.13;5052764;28;20427;-65
2021/10/17 04:38:45;;;;;;;19.88;9.07;;;;;;;5.82;100.00;99728.13;5042742;28;20706;-66
2021/10/17 04:41:29;;;;;;;16.40;8.85;;;;;;;5.81;100.00;99729.84;5056741;28;20043;-63
2021/10/17 04:44:14;;;;;;;18.50;9.88;;;;;;;5.77;100.00;99730.69;5057739;28;20050;-65
2021/10/17 04:47:00;;;;;;;18.05;9.07;;;;;;;5.86;100.00;99727.22;5057597;28;20103;-64
2021/10/17 04:49:45;;;;;;;19.75;9.40;;;;;;;5.87;100.00;99724.59;5052610;28;20059;-64
2021/10/17 04:52:29;;;;;;;16.63;8.90;;;;;;;5.90;100.00;99729.88;5072426;28;20101;-65
2021/10/17 04:55:14;;;;;;;17.45;8.90;;;;;;;5.94;100.00;99721.09;5059035;28;20094;-69
2021/10/17 04:58:06;;;;;;;17.67;7.93;;;;;;;6.04;100.00;99722.78;5040626;28;20102;-63
2021/10/17 05:00:51;;;;;;;20.02;8.90;;;;;;;6.01;100.00;99725.41;5068458;28;20075;-62
2021/10/17 05:03:37;;;;;;;16.67;7.97;;;;;;;6.16;100.00;99722.75;5061322;28;20060;-65
2021/10/17 05:06:21;;;;;;;15.15;8.43;;;;;;;6.02;100.00;99727.19;5061602;28;20140;-64
2021/10/17 05:09:06;;;;;;;16.58;7.95;;;;;;;6.07;100.00;99724.53;5053191;28;20052;-62
2021/10/17 05:11:52;;;;;;;18.33;8.90;;;;;;;6.18;100.00;99728.91;5043979;28;20071;-63
2021/10/17 05:14:37;;;;;;;15.70;8.00;;;;;;;6.14;100.00;99726.28;5053870;28;20051;-67
2021/10/17 05:17:21;;;;;;;15.20;8.50;;;;;;;6.16;100.00;99727.13;5054664;28;20448;-62
2021/10/17 05:20:07;;;;;;;14.25;7.43;;;;;;;6.09;100.00;99718.38;5069408;28;20067;-64
2021/10/17 05:22:53;;;;;;;15.32;7.63;;;;;;;6.02;100.00;99723.69;5071759;28;20055;-65
2021/10/17 05:25:38;;;;;;;13.27;7.20;;;;;;;6.08;100.00;99728.91;5070690;28;20102;-67
2021/10/17 05:28:22;;;;;;;14.48;7.20;;;;;;;6.09;100.00;99722.78;5057127;28;20059;-65
2021/10/17 05:31:11;;;;;;;15.02;7.78;;;;;;;5.98;100.00;99720.19;5051853;28;20050;-65
2021/10/17 05:33:56;;;;;;;;;;;;;;;6.02;100.00;99718.41;5055760;28;20058;-62
2021/10/17 05:36:40;;;;;;;15.82;7.47;;;;;;;6.12;100.00;99721.00;5055849;28;19965;-64
2021/10/17 05:39:25;;;;;;;19.15;8.85;;;;;;;6.23;100.00;99721.84;5053136;28;20080;-67
2021/10/17 05:42:09;;;;;;;18.45;8.00;;;;;;;6.24;100.00;99728.88;5057732;28;20048;-63
2021/10/17 05:44:54;;;;;;;14.43;7.45;;;;;;;6.32;100.00;99727.09;5059223;28;20050;-64
2021/10/17 05:47:41;;;;;;;14.30;7.10;;;;;;;6.44;100.00;99731.44;5054727;28;20075;-71
2021/10/17 05:50:26;;;;;;;16.52;8.25;;;;;;;6.49;100.00;99740.19;5066546;28;20059;-65
2021/10/17 05:53:11;;;;;;;15.40;7.82;;;;;;;6.65;100.00;99733.97;5052892;28;20048;-66
2021/10/17 05:55:56;;;;;;;17.25;8.13;;;;;;;6.57;100.00;99736.63;5059636;28;20650;-66
2021/10/17 05:58:41;;;;;;;13.95;8.00;;;;;;;6.67;100.00;99727.81;5053391;28;20055;-65
2021/10/17 06:01:25;;;;;;;14.45;7.75;;;;;;;6.86;100.00;99728.56;5069799;28;20050;-64
2021/10/17 06:04:23;;;;;;;15.30;7.65;;;;;;;7.10;100.00;99723.13;5059129;28;20095;-63
2021/10/17 06:07:21;;;;;;;14.73;8.10;;;;;;;7.33;100.00;99721.22;5055444;28;20051;-65
2021/10/17 06:10:12;;;;;;;16.80;8.77;;;;;;;7.21;100.00;99737.13;5063363;28;20523;-66
2021/10/17 06:12:58;;;;;;;19.95;7.78;;;;;;;7.21;100.00;99737.13;5060667;28;20086;-62
2021/10/17 06:15:43;;;;;;;13.52;7.57;;;;;;;7.08;100.00;99731.06;5071002;28;20075;-62
2021/10/17 06:18:28;;;;;;;16.77;7.95;;;;;;;7.27;100.00;99730.03;5068987;28;20480;-65
2021/10/17 06:21:14;;;;;;;14.02;7.72;;;;;;;7.40;100.00;99736.97;5061117;28;20056;-63
2021/10/17 06:24:00;;;;;;;12.40;7.20;;;;;;;7.54;100.00;99743.03;5072627;28;20051;-63
2021/10/17 06:26:46;;;;;;;14.02;7.63;;;;;;;7.58;100.00;99739.47;5072214;28;20063;-65
2021/10/17 06:29:31;;;;;;;12.25;7.18;;;;;;;7.58;100.00;99734.19;5058155;28;20056;-66
2021/10/17 06:32:20;;;;;;;16.48;7.78;;;;;;;7.60;100.00;99731.53;5045046;28;20095;-64
2021/10/17 06:35:05;;;;;;;15.70;7.03;;;;;;;7.81;100.00;99734.88;5058380;28;20239;-65
2021/10/17 06:37:50;;;;;;;19.85;7.70;;;;;;;7.96;100.00;99737.31;5056944;28;20154;-65
2021/10/17 06:40:35;;;;;;;14.07;7.30;;;;;;;7.93;100.00;99732.09;5064629;28;20044;-64
2021/10/17 06:43:21;;;;;;;16.85;7.40;;;;;;;8.20;100.00;99730.94;5057803;28;20087;-72
2021/10/17 06:46:28;;;;;;;16.98;7.43;;;;;;;8.43;100.00;99729.78;5070474;28;20443;-65
2021/10/17 06:49:13;;;;;;;16.67;7.07;;;;;;;8.28;100.00;99727.31;5074956;28;20051;-67
2021/10/17 06:52:00;;;;;;;17.50;7.65;;;;;;;8.38;100.00;99728.97;5060452;28;20178;-67
2021/10/17 06:54:45;;;;;;;13.95;7.20;;;;;;;8.35;100.00;99739.56;5041222;28;20086;-65
2021/10/17 06:57:29;;;;;;;11.70;6.93;;;;;;;8.42;100.00;99727.16;5058516;28;20549;-63
2021/10/17 07:00:16;;;;;;;15.88;7.63;;;;;;;8.48;100.00;99737.66;5066060;28;20059;-67
2021/10/17 07:03:05;;;;;;;13.73;6.85;;;;;;;8.52;100.00;99720.88;5065885;28;20098;-63
2021/10/17 07:05:54;;;;;;;11.88;7.35;;;;;;;8.65;100.00;99730.41;5063493;28;20079;-65
2021/10/17 07:08:41;;;;;;;13.23;7.72;;;;;;;8.61;100.00;99726.03;5057088;28;20051;-66
2021/10/17 07:11:31;;;;;;;12.65;6.88;;;;;;;8.71;100.00;99730.34;5059483;28;20520;-62
2021/10/17 07:14:21;;;;;;;13.60;6.95;;;;;;;8.48;100.00;99729.75;5055549;28;20154;-64
2021/10/17 07:17:20;;;;;;;12.57;7.22;;;;;;;8.54;100.00;99738.47;5057856;28;20106;-69
2021/10/17 07:20:06;;;;;;;11.35;6.80;;;;;;;8.65;100.00;99720.72;5063648;28;20055;-70
2021/10/17 07:22:56;;;;;;;15.90;7.40;;;;;;;8.81;100.00;99735.47;5053835;28;20052;-70
2021/10/17 07:25:43;;;;;;;16.63;7.32;;;;;;;8.73;100.00;99726.78;5032837;28;20440;-63
2021/10/17 07:28:28;;;;;;;12.18;6.65;;;;;;;8.74;100.00;99733.78;5064284;28;20059;-62
2021/10/17 07:31:24;;;;;;;16.50;7.15;;;;;;;8.84;100.00;99735.44;5065403;28;20400;-62
2021/10/17 07:34:16;;;;;;;14.43;6.95;;;;;;;8.81;100.00;99735.47;5051779;28;20528;-64
2021/10/17 07:37:02;;;;;;;12.90;7.22;;;;;;;8.82;100.00;99717.81;5064747;28;20046;-64
2021/10/17 07:39:52;;;;;;;12.57;7.07;;;;;;;8.95;100.00;99719.41;5043067;28;20056;-63
2021/10/17 07:42:37;;;;;;;11.73;7.55;;;;;;;9.11;100.00;99742.97;5065808;28;20097;-65
2021/10/17 07:45:22;;;;;;;14.80;7.03;;;;;;;9.24;100.00;99731.31;5068358;28;20094;-71
2021/10/17 07:48:14;;;;;;;12.32;6.60;;;;;;;9.77;100.00;99733.06;5047554;28;20440;-64
2021/10/17 07:51:08;;;;;;;11.20;5.93;;;;;;;12.01;100.00;99737.00;5048373;28;20590;-68
2021/10/17 07:53:53;;;;;;;9.00;5.68;;;;;;;13.36;100.00;99735.69;5061129;28;20056;-69
2021/10/17 07:56:39;;;;;;;12.48;5.15;;;;;;;14.12;100.00;99728.69;5048537;28;20188;-62
2021/10/17 07:59:25;;;;;;;11.75;5.57;;;;;;;15.31;91.87;99735.75;5058868;28;20110;-64
2021/10/17 08:02:09;;;;;;;11.20;5.80;;;;;;;16.21;85.01;99745.38;5058418;28;20087;-67
2021/10/17 08:04:57;;;;;;;13.93;5.18;;;;;;;18.04;75.96;99747.41;5062007;28;20165;-65
2021/10/17 08:07:43;;;;;;;16.02;5.60;;;;;;;19.27;65.54;99748.03;5024134;28;20156;-65
2021/10/17 08:10:28;;;;;;;9.20;5.32;;;;;;;18.85;58.87;99762.88;5060019;28;20178;-69
2021/10/17 08:13:12;;;;;;;11.10;5.50;;;;;;;16.34;63.37;99730.50;5049241;28;20059;-70
2021/10/17 08:16:01;;;;;;;7.10;4.95;;;;;;;15.08;71.61;99734.94;5052435;28;20047;-65
2021/10/17 08:18:54;;;;;;;9.68;5.10;;;;;;;14.51;79.61;99745.13;5054504;28;20632;-68
2021/10/17 08:21:38;;;;;;;10.45;5.47;;;;;;;13.66;84.02;99740.03;5049349;28;20052;-66
2021/10/17 08:24:26;;;;;;;9.65;5.43;;;;;;;13.35;88.83;99749.94;5046654;28;20044;-63
2021/10/17 08:27:11;;;;;;;12.43;5.43;;;;;;;13.75;90.08;99745.06;5063583;28;20125;-64
2021/10/17 08:29:55;;;;;;;9.40;5.22;;;;;;;14.90;84.76;99716.94;5050484;28;20431;-66
2021/10/17 08:32:40;;;;;;;7.90;4.93;;;;;;;15.57;78.05;99746.31;5062693;28;20568;-68
2021/10/17 08:35:25;;;;;;;14.52;5.10;;;;;;;15.56;75.67;99757.94;5052400;28;20071;-66
2021/10/17 08:38:09;;;;;;;13.10;6.82;;;;;;;16.16;73.10;99746.50;5064638;28;20217;-65
2021/10/17 08:41:01;;;;;;;15.95;8.13;;;;;;;16.35;70.07;99753.69;5056077;28;20051;-71
2021/10/17 08:44:06;;;;;;;12.70;6.25;;;;;;;17.63;66.50;99740.56;5056171;28;20051;-65
2021/10/17 08:47:01;;;;;;;;;;;;;;;19.68;61.75;99745.69;5048771;28;20047;-64
2021/10/17 08:49:52;;;;;;;8.60;4.88;;;;;;;20.32;53.73;99759.84;5067510;28;20415;-66
2021/10/17 08:52:39;;;;;;;13.25;5.38;;;;;;;20.04;48.91;99757.00;5068538;28;20055;-66
2021/10/17 08:55:25;;;;;;;8.50;4.78;;;;;;;19.05;50.28;99736.69;5064165;28;20658;-73
2021/10/17 08:58:23;;;;;;;10.68;5.25;;;;;;;18.64;52.15;99735.38;5078985;28;20563;-66
2021/10/17 09:01:16;;;;;;;12.88;4.70;;;;;;;18.13;52.81;99762.19;5036612;28;20473;-65
2021/10/17 09:04:07;;;;;;;11.18;5.03;;;;;;;17.42;54.42;99730.88;5045867;28;20122;-67
2021/10/17 09:07:21;;;;;;;10.23;5.47;;;;;;;16.74;56.96;99733.19;5063572;28;20066;-63
2021/10/17 09:10:24;;;;;;;8.82;4.68;;;;;;;16.75;57.98;99737.63;5061198;28;20139;-63
2021/10/17 09:13:13;;;;;;;8.65;4.90;;;;;;;15.69;59.83;99729.78;5044028;28;20094;-65
2021/10/17 09:15:58;;;;;;;10.63;4.70;;;;;;;15.43;63.13;99750.47;5064948;28;20055;-65
2021/10/17 09:18:44;;;;;;;7.45;4.03;;;;;;;16.10;64.44;99747.63;5065505;28;20058;-64
2021/10/17 09:21:31;;;;;;;13.95;4.35;;;;;;;15.92;63.46;99755.56;5050814;28;20079;-64
2021/10/17 09:24:27;;;;;;;12.73;4.93;;;;;;;15.29;65.40;99759.00;5066105;28;20052;-66
2021/10/17 09:27:21;;;;;;;10.05;4.63;;;;;;;14.74;68.06;99746.00;5045540;28;20044;-64
2021/10/17 09:30:06;;;;;;;12.82;5.53;;;;;;;15.49;69.94;99761.78;5062445;28;20059;-74
2021/10/17 09:33:19;;;;;;;11.10;5.13;;;;;;;16.64;65.97;99749.75;5057161;28;20821;-65
2021/10/17 09:36:23;;;;;;;11.77;5.68;;;;;;;17.36;61.76;99765.97;5064792;28;20194;-70
2021/10/17 09:39:33;;;;;;;9.68;5.22;;;;;;;16.10;62.52;99768.19;5061041;28;20540;-66
2021/10/17 09:43:29;;;;;;;9.13;5.13;;;;;;;15.81;65.48;99755.13;5066676;28;20062;-66
2021/10/17 09:46:35;;;;;;;9.63;4.45;;;;;;;14.45;67.98;99750.66;5047652;28;20055;-69
2021/10/17 09:49:21;;;;;;;11.90;4.97;;;;;;;13.77;71.59;99745.03;5047773;28;20110;-74
2021/10/17 09:52:13;;;;;;;9.88;4.90;;;;;;;13.61;75.54;99762.44;5061290;28;20105;-72
2021/10/17 09:55:09;;;;;;;15.80;5.45;;;;;;;13.16;80.16;99746.09;5068088;28;20105;-66
2021/10/17 09:57:54;;;;;;;10.43;4.88;;;;;;;12.81;82.92;99751.56;5082993;28;20056;-65
2021/10/17 10:00:39;;;;;;;13.88;5.90;;;;;;;12.55;86.21;99746.13;5083556;28;20086;-67
2021/10/17 10:03:25;;;;;;;;;;;;;;;12.45;87.72;99741.97;5063522;28;20090;-66
2021/10/17 10:06:10;;;;;;;10.55;4.93;;;;;;;12.17;89.70;99738.34;5057056;28;20399;-69
2021/10/17 10:09:00;;;;;;;10.23;4.05;;;;;;;12.21;90.08;99740.00;5066440;28;20961;-68
2021/10/17 10:11:49;;;;;;;9.93;5.00;;;;;;;12.37;92.21;99754.63;5061802;28;20102;-70
2021/10/17 10:14:38;;;;;;;14.68;5.95;;;;;;;12.10;93.21;99736.75;5061480;28;20129;-68
2021/10/17 10:17:23;;;;;;;11.50;5.57;;;;;;;11.59;96.40;99740.69;5048834;28;20052;-65
2021/10/17 10:20:10;;;;;;;31.48;13.27;;;;;;;11.51;97.74;99728.53;5051248;28;20361;-67
2021/10/17 10:22:55;;;;;;;36.30;14.43;;;;;;;11.82;99.55;99748.13;5057280;28;20051;-67
2021/10/17 10:25:42;;;;;;;38.17;13.05;;;;;;;11.97;95.85;99747.75;5066680;28;20118;-67
2021/10/17 10:28:27;;;;;;;27.42;10.27;;;;;;;11.64;97.41;99753.91;5075317;28;20055;-69
2021/10/17 10:31:41;;;;;;;33.35;11.07;;;;;;;11.41;100.00;99753.56;5065231;28;20052;-64
2021/10/17 10:34:45;;;;;;;13.27;5.43;;;;;;;11.35;100.00;99735.97;5053483;28;20543;-66
2021/10/17 10:37:30;;;;;;;8.68;4.50;;;;;;;11.44;100.00;99753.47;5052747;28;20595;-72
2021/10/17 10:40:17;;;;;;;8.93;4.50;;;;;;;11.15;100.00;99740.03;5050444;28;20139;-73
2021/10/17 10:43:15;;;;;;;13.55;5.47;;;;;;;11.16;100.00;99771.81;5064257;28;20142;-67
2021/10/17 10:46:03;;;;;;;12.45;5.57;;;;;;;10.94;100.00;99754.63;5043428;28;20048;-67
2021/10/17 10:48:48;;;;;;;9.90;5.10;;;;;;;10.76;100.00;99730.28;5055140;28;20085;-65
2021/10/17 10:51:40;;;;;;;10.57;4.70;;;;;;;10.71;100.00;99748.94;5062102;28;20536;-68
2021/10/17 10:54:24;;;;;;;12.27;5.28;;;;;;;10.78;100.00;99749.69;5060105;28;20436;-67
2021/10/17 10:57:21;;;;;;;10.02;5.30;;;;;;;10.69;100.00;99742.81;5066400;28;20055;-65
2021/10/17 11:00:06;;;;;;;13.20;4.75;;;;;;;10.50;100.00;99757.34;5046952;28;20576;-73
2021/10/17 11:03:14;;;;;;;9.40;4.32;;;;;;;10.66;100.00;99750.81;5060989;28;20087;-66
2021/10/17 11:06:06;;;;;;;13.93;4.30;;;;;;;10.93;100.00;99752.00;5064798;28;20078;-66
2021/10/17 11:09:23;;;;;;;8.98;4.00;;;;;;;10.79;100.00;99747.00;5054882;28;20083;-68
2021/10/17 11:12:10;;;;;;;10.48;4.38;;;;;;;10.58;100.00;99746.56;5060483;28;20535;-66
2021/10/17 11:15:06;;;;;;;8.15;4.97;;;;;;;10.43;100.00;99744.22;5056009;28;20521;-80
2021/10/17 11:18:11;;;;;;;10.23;4.35;;;;;;;10.56;100.00;99741.28;5072138;28;20083;-68
2021/10/17 11:20:56;;;;;;;;;;;;;;;10.52;100.00;99738.75;5056645;28;20273;-67
2021/10/17 11:23:42;;;;;;;9.70;5.15;;;;;;;10.89;100.00;99750.31;5069206;28;19923;-65
2021/10/17 11:26:27;;;;;;;11.35;4.72;;;;;;;10.89;100.00;99739.72;5057774;28;20055;-66
2021/10/17 11:29:12;;;;;;;12.27;4.82;;;;;;;10.80;100.00;99740.78;5044655;28;20401;-72
2021/10/17 11:32:07;;;;;;;8.60;4.30;;;;;;;10.84;100.00;99746.91;5050503;28;20118;-67
2021/10/17 11:35:03;;;;;;;9.77;3.13;;;;;;;10.79;100.00;99738.16;5059712;28;20080;-69
2021/10/17 11:37:53;;;;;;;9.85;4.18;;;;;;;10.94;100.00;99736.06;5053977;28;20081;-69
2021/10/17 11:40:37;;;;;;;10.45;4.20;;;;;;;10.99;100.00;99735.97;5055902;28;20055;-76
2021/10/17 11:43:33;;;;;;;12.07;3.75;;;;;;;11.36;100.00;99731.56;5065240;28;20047;-66
2021/10/17 11:46:28;;;;;;;9.00;4.15;;;;;;;11.39;100.00;99724.38;5058652;28;20056;-68
2021/10/17 11:49:20;;;;;;;;;;;;;;;11.15;100.00;99724.97;5053361;28;20610;-70
2021/10/17 11:52:06;;;;;;;8.68;4.10;;;;;;;11.07;100.00;99734.03;5048465;28;19932;-70
2021/10/17 11:54:52;;;;;;;10.05;4.25;;;;;;;11.13;100.00;99725.91;5065366;28;20098;-70
2021/10/17 11:57:36;;;;;;;8.82;4.78;;;;;;;11.10;100.00;99716.25;5064497;28;20051;-71
2021/10/17 12:00:27;;;;;;;7.22;3.75;;;;;;;11.16;100.00;99720.53;5066584;28;20063;-67
2021/10/17 12:03:12;;;;;;;11.32;4.75;;;;;;;11.01;100.00;99720.88;5048194;28;20137;-69
2021/10/17 12:05:57;;;;;;;12.10;4.55;;;;;;;11.27;100.00;99722.00;5036594;28;20044;-66
2021/10/17 12:08:56;;;;;;;9.77;3.78;;;;;;;11.31;100.00;99713.06;5045747;28;20579;-67
2021/10/17 12:11:40;;;;;;;10.57;4.40;;;;;;;11.77;100.00;99707.53;5058429;28;20067;-66
2021/10/17 12:14:30;;;;;;;10.70;4.32;;;;;;;12.02;100.00;99704.19;5068554;28;20140;-65
2021/10/17 12:17:16;;;;;;;11.02;4.72;;;;;;;12.07;97.85;99698.75;5064426;28;20070;-68
2021/10/17 12:20:07;;;;;;;9.52;4.18;;;;;;;11.78;97.64;99704.84;5055841;28;20065;-65
2021/10/17 12:22:54;;;;;;;10.35;3.83;;;;;;;12.05;97.34;99706.78;5058235;28;20490;-64
2021/10/17 12:26:01;;;;;;;8.20;3.90;;;;;;;12.29;96.64;99692.81;5028549;28;20048;-70
2021/10/17 12:29:06;;;;;;;10.40;4.78;;;;;;;12.05;94.83;99706.78;5032367;28;20287;-72
2021/10/17 12:32:00;;;;;;;6.80;3.53;;;;;;;11.60;96.97;99693.78;5039213;28;20487;-68
2021/10/17 12:34:48;;;;;;;13.73;4.70;;;;;;;11.25;99.51;99696.44;5028209;28;20134;-67
2021/10/17 12:37:39;;;;;;;12.32;5.10;;;;;;;11.24;100.00;99684.06;5024979;28;20467;-69
2021/10/17 12:40:23;;;;;;;17.25;5.85;;;;;;;11.26;100.00;99698.16;5039832;28;20527;-64
2021/10/17 12:43:09;;;;;;;12.32;6.00;;;;;;;11.13;100.00;99696.72;5041026;28;20103;-66
2021/10/17 12:45:56;;;;;;;11.38;5.15;;;;;;;11.22;100.00;99696.50;5025023;28;20114;-67
2021/10/17 12:48:44;;;;;;;8.85;4.78;;;;;;;11.22;100.00;99699.16;5026821;28;20056;-67
2021/10/17 12:51:32;;;;;;;9.65;4.20;;;;;;;11.08;100.00;99691.50;5038959;28;20086;-67
2021/10/17 12:54:25;;;;;;;8.85;3.83;;;;;;;10.90;100.00;99686.63;5041495;28;20056;-66
2021/10/17 12:57:10;;;;;;;10.85;3.80;;;;;;;10.83;100.00;99698.28;5038893;28;20163;-69
2021/10/17 13:00:02;;;;;;;12.15;3.90;;;;;;;10.94;100.00;99708.66;5039000;28;20051;-68
2021/10/17 13:02:47;;;;;;;7.63;3.90;;;;;;;10.93;100.00;99689.22;5040820;28;20070;-66
2021/10/17 13:05:32;;;;;;;11.82;3.75;;;;;;;11.20;100.00;99687.72;5063286;28;20129;-65